sensor_id;sensor_type;location;lat;lon;timestamp;pressure;altitude;pressure_sealevel;temperature;humidity
42771;BME280;28426;42.872;25.314;2023-02-15T00:01:06;98204.47;;;-3.03;87.67
42771;BME280;28426;42.872;25.314;2023-02-15T00:03:39;98191.66;;;-3.07;87.47
42771;BME280;28426;42.872;25.314;2023-02-15T00:06:10;98194.47;;;-3.12;87.65
42771;BME280;28426;42.872;25.314;2023-02-15T00:08:41;98193.06;;;-3.19;87.63
42771;BME280;28426;42.872;25.314;2023-02-15T00:11:13;98195.94;;;-3.25;88.04
42771;BME280;28426;42.872;25.314;2023-02-15T00:13:44;98195.31;;;-3.31;87.76
42771;BME280;28426;42.872;25.314;2023-02-15T00:16:15;98203.31;;;-3.34;88.24
42771;BME280;28426;42.872;25.314;2023-02-15T00:18:51;98194.91;;;-3.40;88.52
42771;BME280;28426;42.872;25.314;2023-02-15T00:21:22;98189.03;;;-3.46;88.20
42771;BME280;28426;42.872;25.314;2023-02-15T00:23:53;98194.72;;;-3.57;88.15
42771;BME280;28426;42.872;25.314;2023-02-15T00:26:23;98204.41;;;-3.59;88.71
42771;BME280;28426;42.872;25.314;2023-02-15T00:28:54;98205.47;;;-3.63;88.93
42771;BME280;28426;42.872;25.314;2023-02-15T00:31:27;98200.31;;;-3.64;89.59
42771;BME280;28426;42.872;25.314;2023-02-15T00:34:05;98200.25;;;-3.63;89.75
42771;BME280;28426;42.872;25.314;2023-02-15T00:36:36;98171.09;;;-3.73;89.14
42771;BME280;28426;42.872;25.314;2023-02-15T00:39:06;98186.44;;;-3.65;89.16
42771;BME280;28426;42.872;25.314;2023-02-15T00:41:37;98181.22;;;-3.65;89.23
42771;BME280;28426;42.872;25.314;2023-02-15T00:44:08;98188.00;;;-3.61;89.81
42771;BME280;28426;42.872;25.314;2023-02-15T00:46:38;98180.63;;;-3.52;90.45
42771;BME280;28426;42.872;25.314;2023-02-15T00:49:12;98181.38;;;-3.49;89.93
42771;BME280;28426;42.872;25.314;2023-02-15T00:51:42;98176.91;;;-3.47;89.35
42771;BME280;28426;42.872;25.314;2023-02-15T00:54:13;98171.69;;;-3.47;89.28
42771;BME280;28426;42.872;25.314;2023-02-15T00:56:44;98175.84;;;-3.43;89.50
42771;BME280;28426;42.872;25.314;2023-02-15T00:59:14;98179.25;;;-3.40;89.80
42771;BME280;28426;42.872;25.314;2023-02-15T01:01:47;98173.19;;;-3.41;89.65
42771;BME280;28426;42.872;25.314;2023-02-15T01:04:21;98167.66;;;-3.35;89.69
42771;BME280;28426;42.872;25.314;2023-02-15T01:06:52;98167.53;;;-3.32;89.27
42771;BME280;28426;42.872;25.314;2023-02-15T01:09:23;98165.00;;;-3.33;89.14
42771;BME280;28426;42.872;25.314;2023-02-15T01:11:53;98176.41;;;-3.36;88.85
42771;BME280;28426;42.872;25.314;2023-02-15T01:14:26;98171.50;;;-3.42;88.67
42771;BME280;28426;42.872;25.314;2023-02-15T01:16:56;98187.00;;;-3.39;90.00
42771;BME280;28426;42.872;25.314;2023-02-15T01:19:30;98174.88;;;-3.40;89.01
42771;BME280;28426;42.872;25.314;2023-02-15T01:22:00;98170.56;;;-3.41;89.19
42771;BME280;28426;42.872;25.314;2023-02-15T01:24:35;98176.78;;;-3.44;88.98
42771;BME280;28426;42.872;25.314;2023-02-15T01:27:05;98180.50;;;-3.49;88.58
42771;BME280;28426;42.872;25.314;2023-02-15T01:29:36;98173.97;;;-3.58;88.67
42771;BME280;28426;42.872;25.314;2023-02-15T01:32:06;98171.53;;;-3.63;88.90
42771;BME280;28426;42.872;25.314;2023-02-15T01:34:40;98165.81;;;-3.71;88.37
42771;BME280;28426;42.872;25.314;2023-02-15T01:37:10;98166.25;;;-3.61;93.03
42771;BME280;28426;42.872;25.314;2023-02-15T01:39:41;98173.59;;;-3.50;92.71
42771;BME280;28426;42.872;25.314;2023-02-15T01:42:14;98169.50;;;-3.37;94.30
42771;BME280;28426;42.872;25.314;2023-02-15T01:44:52;98165.84;;;-3.33;89.65
42771;BME280;28426;42.872;25.314;2023-02-15T01:47:29;98166.88;;;-3.56;84.60
42771;BME280;28426;42.872;25.314;2023-02-15T01:50:08;98159.75;;;-3.91;83.50
42771;BME280;28426;42.872;25.314;2023-02-15T01:52:43;98161.59;;;-4.14;86.29
42771;BME280;28426;42.872;25.314;2023-02-15T01:55:14;98161.06;;;-4.01;92.96
42771;BME280;28426;42.872;25.314;2023-02-15T01:57:46;98159.44;;;-3.85;93.99
42771;BME280;28426;42.872;25.314;2023-02-15T02:00:17;98163.09;;;-3.89;89.85
42771;BME280;28426;42.872;25.314;2023-02-15T02:02:51;98160.44;;;-3.87;89.94
42771;BME280;28426;42.872;25.314;2023-02-15T02:05:28;98163.09;;;-3.89;89.86
42771;BME280;28426;42.872;25.314;2023-02-15T02:08:01;98157.00;;;-3.88;90.46
42771;BME280;28426;42.872;25.314;2023-02-15T02:10:32;98167.28;;;-3.85;91.02
42771;BME280;28426;42.872;25.314;2023-02-15T02:13:04;98167.91;;;-3.79;91.95
42771;BME280;28426;42.872;25.314;2023-02-15T02:15:40;98169.47;;;-3.75;91.94
42771;BME280;28426;42.872;25.314;2023-02-15T02:18:23;98172.81;;;-3.72;91.63
42771;BME280;28426;42.872;25.314;2023-02-15T02:21:33;98169.34;;;-3.72;91.22
42771;BME280;28426;42.872;25.314;2023-02-15T02:24:41;98166.94;;;-3.77;90.08
42771;BME280;28426;42.872;25.314;2023-02-15T02:27:29;98174.97;;;-3.82;90.33
42771;BME280;28426;42.872;25.314;2023-02-15T02:33:27;98177.28;;;-3.95;89.77
42771;BME280;28426;42.872;25.314;2023-02-15T02:36:08;98170.69;;;-4.03;89.42
42771;BME280;28426;42.872;25.314;2023-02-15T02:38:53;98174.47;;;-4.11;90.21
42771;BME280;28426;42.872;25.314;2023-02-15T02:41:31;98174.88;;;-3.99;93.76
42771;BME280;28426;42.872;25.314;2023-02-15T02:44:11;98177.78;;;-3.86;93.26
42771;BME280;28426;42.872;25.314;2023-02-15T02:46:48;98175.56;;;-3.75;93.57
42771;BME280;28426;42.872;25.314;2023-02-15T02:49:34;98175.84;;;-3.62;93.28
42771;BME280;28426;42.872;25.314;2023-02-15T02:52:31;98178.81;;;-3.50;93.01
42771;BME280;28426;42.872;25.314;2023-02-15T02:54:57;98176.56;;;-3.39;92.70
42771;BME280;28426;42.872;25.314;2023-02-15T02:57:30;98172.63;;;-3.29;92.72
42771;BME280;28426;42.872;25.314;2023-02-15T03:00:05;98173.94;;;-3.20;92.25
42771;BME280;28426;42.872;25.314;2023-02-15T03:02:40;98175.28;;;-3.11;92.03
42771;BME280;28426;42.872;25.314;2023-02-15T03:05:19;98168.00;;;-3.04;91.66
42771;BME280;28426;42.872;25.314;2023-02-15T03:07:53;98166.66;;;-2.94;91.56
42771;BME280;28426;42.872;25.314;2023-02-15T03:10:28;98175.88;;;-2.86;91.11
42771;BME280;28426;42.872;25.314;2023-02-15T03:12:59;98167.75;;;-2.80;91.00
42771;BME280;28426;42.872;25.314;2023-02-15T03:15:33;98174.38;;;-2.73;90.56
42771;BME280;28426;42.872;25.314;2023-02-15T03:18:18;98168.84;;;-2.67;91.52
42771;BME280;28426;42.872;25.314;2023-02-15T03:20:53;98177.44;;;-2.65;91.52
42771;BME280;28426;42.872;25.314;2023-02-15T03:23:28;98183.44;;;-2.63;91.18
42771;BME280;28426;42.872;25.314;2023-02-15T03:26:02;98184.44;;;-2.65;90.79
42771;BME280;28426;42.872;25.314;2023-02-15T03:28:38;98180.75;;;-2.79;89.62
42771;BME280;28426;42.872;25.314;2023-02-15T03:31:13;98191.06;;;-2.95;88.52
42771;BME280;28426;42.872;25.314;2023-02-15T03:33:52;98199.03;;;-2.98;92.83
42771;BME280;28426;42.872;25.314;2023-02-15T03:36:32;98191.22;;;-2.98;92.74
42771;BME280;28426;42.872;25.314;2023-02-15T03:39:11;98203.97;;;-2.92;93.13
42771;BME280;28426;42.872;25.314;2023-02-15T03:41:48;98198.84;;;-2.93;92.07
42771;BME280;28426;42.872;25.314;2023-02-15T03:44:25;98204.06;;;-2.93;91.46
42771;BME280;28426;42.872;25.314;2023-02-15T03:46:59;98199.91;;;-2.97;90.28
42771;BME280;28426;42.872;25.314;2023-02-15T03:49:43;98209.13;;;-3.09;88.30
42771;BME280;28426;42.872;25.314;2023-02-15T03:52:18;98212.41;;;-3.23;89.58
42771;BME280;28426;42.872;25.314;2023-02-15T03:54:50;98206.19;;;-3.40;90.13
42771;BME280;28426;42.872;25.314;2023-02-15T03:57:23;98218.41;;;-3.40;90.84
42771;BME280;28426;42.872;25.314;2023-02-15T04:00:12;98221.22;;;-3.45;91.13
42771;BME280;28426;42.872;25.314;2023-02-15T04:03:07;98223.75;;;-3.44;94.04
42771;BME280;28426;42.872;25.314;2023-02-15T04:05:39;98220.72;;;-3.34;94.60
42771;BME280;28426;42.872;25.314;2023-02-15T04:08:12;98219.94;;;-3.36;91.15
42771;BME280;28426;42.872;25.314;2023-02-15T04:10:43;98232.41;;;-3.43;90.16
42771;BME280;28426;42.872;25.314;2023-02-15T04:13:21;98222.69;;;-3.39;94.70
42771;BME280;28426;42.872;25.314;2023-02-15T04:15:53;98233.72;;;-3.33;93.90
42771;BME280;28426;42.872;25.314;2023-02-15T04:18:34;98237.72;;;-3.25;91.48
42771;BME280;28426;42.872;25.314;2023-02-15T04:21:18;98226.66;;;-3.31;90.35
42771;BME280;28426;42.872;25.314;2023-02-15T04:24:04;98235.59;;;-3.36;89.36
42771;BME280;28426;42.872;25.314;2023-02-15T04:26:46;98244.81;;;-3.48;88.96
42771;BME280;28426;42.872;25.314;2023-02-15T04:29:20;98241.06;;;-3.62;89.53
42771;BME280;28426;42.872;25.314;2023-02-15T04:31:51;98235.31;;;-3.70;90.94
42771;BME280;28426;42.872;25.314;2023-02-15T04:34:22;98234.75;;;-3.77;91.40
42771;BME280;28426;42.872;25.314;2023-02-15T04:36:52;98242.78;;;-3.82;91.73
42771;BME280;28426;42.872;25.314;2023-02-15T04:39:26;98243.31;;;-3.73;95.73
42771;BME280;28426;42.872;25.314;2023-02-15T04:41:56;98242.91;;;-3.64;95.62
42771;BME280;28426;42.872;25.314;2023-02-15T04:44:27;98247.13;;;-3.61;92.45
42771;BME280;28426;42.872;25.314;2023-02-15T04:46:57;98255.25;;;-3.68;91.01
42771;BME280;28426;42.872;25.314;2023-02-15T04:49:28;98243.81;;;-3.65;94.68
42771;BME280;28426;42.872;25.314;2023-02-15T04:51:58;98254.69;;;-3.55;94.91
42771;BME280;28426;42.872;25.314;2023-02-15T04:54:31;98243.13;;;-3.49;93.23
42771;BME280;28426;42.872;25.314;2023-02-15T04:57:02;98252.53;;;-3.45;91.60
42771;BME280;28426;42.872;25.314;2023-02-15T04:59:33;98257.09;;;-3.50;90.40
42771;BME280;28426;42.872;25.314;2023-02-15T05:02:03;98250.44;;;-3.58;90.21
42771;BME280;28426;42.872;25.314;2023-02-15T05:04:34;98261.22;;;-3.65;90.12
42771;BME280;28426;42.872;25.314;2023-02-15T05:07:05;98259.88;;;-3.74;90.85
42771;BME280;28426;42.872;25.314;2023-02-15T05:09:38;98264.34;;;-3.78;91.78
42771;BME280;28426;42.872;25.314;2023-02-15T05:12:09;98258.31;;;-3.78;93.09
42771;BME280;28426;42.872;25.314;2023-02-15T05:14:39;98258.16;;;-3.75;93.06
42771;BME280;28426;42.872;25.314;2023-02-15T05:17:10;98251.66;;;-3.86;92.81
42771;BME280;28426;42.872;25.314;2023-02-15T05:19:41;98269.63;;;-3.79;93.11
42771;BME280;28426;42.872;25.314;2023-02-15T05:22:11;98270.97;;;-3.69;96.35
42771;BME280;28426;42.872;25.314;2023-02-15T05:24:45;98281.63;;;-3.55;95.49
42771;BME280;28426;42.872;25.314;2023-02-15T05:27:29;98286.72;;;-3.51;92.69
42771;BME280;28426;42.872;25.314;2023-02-15T05:30:13;98282.22;;;-3.48;93.70
42771;BME280;28426;42.872;25.314;2023-02-15T05:32:44;98293.22;;;-3.41;93.84
42771;BME280;28426;42.872;25.314;2023-02-15T05:35:15;98298.16;;;-3.35;93.69
42771;BME280;28426;42.872;25.314;2023-02-15T05:37:46;98302.22;;;-3.28;93.28
42771;BME280;28426;42.872;25.314;2023-02-15T05:40:19;98295.81;;;-3.20;93.49
42771;BME280;28426;42.872;25.314;2023-02-15T05:42:49;98303.31;;;-3.12;93.05
42771;BME280;28426;42.872;25.314;2023-02-15T05:45:20;98307.25;;;-3.04;92.90
42771;BME280;28426;42.872;25.314;2023-02-15T05:47:51;98310.38;;;-2.95;92.87
42771;BME280;28426;42.872;25.314;2023-02-15T05:50:21;98310.88;;;-2.87;92.31
42771;BME280;28426;42.872;25.314;2023-02-15T05:52:52;98316.59;;;-2.79;92.09
42771;BME280;28426;42.872;25.314;2023-02-15T05:55:25;98312.75;;;-2.71;91.87
42771;BME280;28426;42.872;25.314;2023-02-15T05:57:56;98327.19;;;-2.63;91.45
42771;BME280;28426;42.872;25.314;2023-02-15T06:00:26;98325.13;;;-2.56;90.97
42771;BME280;28426;42.872;25.314;2023-02-15T06:02:57;98336.13;;;-2.49;90.93
42771;BME280;28426;42.872;25.314;2023-02-15T06:05:28;98323.69;;;-2.44;90.51
42771;BME280;28426;42.872;25.314;2023-02-15T06:07:58;98326.88;;;-2.37;90.67
42771;BME280;28426;42.872;25.314;2023-02-15T06:10:34;98335.19;;;-2.29;90.42
42771;BME280;28426;42.872;25.314;2023-02-15T06:13:05;98329.66;;;-2.22;90.34
42771;BME280;28426;42.872;25.314;2023-02-15T06:15:35;98335.44;;;-2.16;90.58
42771;BME280;28426;42.872;25.314;2023-02-15T06:18:06;98336.78;;;-2.07;90.28
42771;BME280;28426;42.872;25.314;2023-02-15T06:20:36;98352.91;;;-1.99;90.10
42771;BME280;28426;42.872;25.314;2023-02-15T06:23:07;98349.88;;;-1.89;90.03
42771;BME280;28426;42.872;25.314;2023-02-15T06:25:41;98345.94;;;-1.80;90.08
42771;BME280;28426;42.872;25.314;2023-02-15T06:28:12;98347.25;;;-1.72;89.54
42771;BME280;28426;42.872;25.314;2023-02-15T06:30:42;98348.56;;;-1.63;89.65
42771;BME280;28426;42.872;25.314;2023-02-15T06:33:13;98355.97;;;-1.53;89.70
42771;BME280;28426;42.872;25.314;2023-02-15T06:35:44;98359.13;;;-1.47;89.63
42771;BME280;28426;42.872;25.314;2023-02-15T06:38:15;98359.50;;;-1.37;89.27
42771;BME280;28426;42.872;25.314;2023-02-15T06:40:48;98355.56;;;-1.28;89.15
42771;BME280;28426;42.872;25.314;2023-02-15T06:43:18;98345.53;;;-1.20;89.22
42771;BME280;28426;42.872;25.314;2023-02-15T06:45:49;98351.97;;;-1.09;89.20
42771;BME280;28426;42.872;25.314;2023-02-15T06:48:20;98346.44;;;-1.03;88.84
42771;BME280;28426;42.872;25.314;2023-02-15T06:50:50;98353.72;;;-0.92;88.87
42771;BME280;28426;42.872;25.314;2023-02-15T06:53:21;98347.41;;;-0.88;88.29
42771;BME280;28426;42.872;25.314;2023-02-15T06:56:00;98348.66;;;-0.79;87.96
42771;BME280;28426;42.872;25.314;2023-02-15T06:58:33;98342.41;;;-0.76;87.40
42771;BME280;28426;42.872;25.314;2023-02-15T07:01:04;98347.31;;;-0.70;87.32
42771;BME280;28426;42.872;25.314;2023-02-15T07:03:35;98337.53;;;-0.67;87.33
42771;BME280;28426;42.872;25.314;2023-02-15T07:06:06;98338.88;;;-0.59;87.14
42771;BME280;28426;42.872;25.314;2023-02-15T07:08:39;98342.78;;;-0.50;87.22
42771;BME280;28426;42.872;25.314;2023-02-15T07:11:12;98335.34;;;-0.42;86.86
42771;BME280;28426;42.872;25.314;2023-02-15T07:13:55;98332.00;;;-0.30;86.92
42771;BME280;28426;42.872;25.314;2023-02-15T07:16:25;98339.13;;;-0.16;86.94
42771;BME280;28426;42.872;25.314;2023-02-15T07:18:56;98333.75;;;0.02;87.08
42771;BME280;28426;42.872;25.314;2023-02-15T07:21:26;98337.78;;;0.24;86.61
42771;BME280;28426;42.872;25.314;2023-02-15T07:23:57;98345.91;;;0.50;86.16
42771;BME280;28426;42.872;25.314;2023-02-15T07:26:31;98329.44;;;0.77;85.41
42771;BME280;28426;42.872;25.314;2023-02-15T07:29:02;98326.53;;;1.11;86.07
42771;BME280;28426;42.872;25.314;2023-02-15T07:31:33;98322.88;;;1.55;86.74
42771;BME280;28426;42.872;25.314;2023-02-15T07:34:04;98325.75;;;2.07;86.20
42771;BME280;28426;42.872;25.314;2023-02-15T07:36:35;98310.13;;;2.58;85.79
42771;BME280;28426;42.872;25.314;2023-02-15T07:39:06;98324.97;;;3.11;85.10
42771;BME280;28426;42.872;25.314;2023-02-15T07:41:39;98319.66;;;3.50;82.36
42771;BME280;28426;42.872;25.314;2023-02-15T07:44:12;98324.28;;;3.84;81.06
42771;BME280;28426;42.872;25.314;2023-02-15T07:46:43;98326.34;;;4.16;80.28
42771;BME280;28426;42.872;25.314;2023-02-15T07:49:14;98328.81;;;4.42;78.92
42771;BME280;28426;42.872;25.314;2023-02-15T07:51:45;98319.75;;;4.57;77.51
42771;BME280;28426;42.872;25.314;2023-02-15T07:54:15;98322.78;;;4.64;75.47
42771;BME280;28426;42.872;25.314;2023-02-15T07:56:48;98323.63;;;4.65;74.57
42771;BME280;28426;42.872;25.314;2023-02-15T07:59:19;98322.88;;;4.63;74.34
42771;BME280;28426;42.872;25.314;2023-02-15T08:01:50;98322.66;;;4.66;73.88
42771;BME280;28426;42.872;25.314;2023-02-15T08:04:21;98328.91;;;4.65;73.16
42771;BME280;28426;42.872;25.314;2023-02-15T08:06:53;98325.41;;;4.64;73.02
42771;BME280;28426;42.872;25.314;2023-02-15T08:09:24;98323.84;;;4.62;71.56
42771;BME280;28426;42.872;25.314;2023-02-15T08:11:57;98316.88;;;4.61;71.41
42771;BME280;28426;42.872;25.314;2023-02-15T08:14:28;98328.78;;;4.66;71.75
42771;BME280;28426;42.872;25.314;2023-02-15T08:17:00;98325.31;;;4.77;71.83
42771;BME280;28426;42.872;25.314;2023-02-15T08:19:32;98323.53;;;4.89;71.93
42771;BME280;28426;42.872;25.314;2023-02-15T08:22:05;98322.59;;;5.13;70.98
42771;BME280;28426;42.872;25.314;2023-02-15T08:24:37;98319.34;;;5.32;70.24
42771;BME280;28426;42.872;25.314;2023-02-15T08:27:11;98320.66;;;5.49;69.27
42771;BME280;28426;42.872;25.314;2023-02-15T08:29:42;98328.44;;;5.74;70.23
42771;BME280;28426;42.872;25.314;2023-02-15T08:32:12;98321.13;;;5.99;69.94
42771;BME280;28426;42.872;25.314;2023-02-15T08:34:43;98319.28;;;6.22;67.55
42771;BME280;28426;42.872;25.314;2023-02-15T08:37:14;98319.28;;;6.44;67.96
42771;BME280;28426;42.872;25.314;2023-02-15T08:39:45;98319.44;;;6.63;67.10
42771;BME280;28426;42.872;25.314;2023-02-15T08:42:18;98311.41;;;6.75;65.43
42771;BME280;28426;42.872;25.314;2023-02-15T08:44:49;98313.97;;;6.86;65.29
42771;BME280;28426;42.872;25.314;2023-02-15T08:47:20;98313.13;;;6.86;62.64
42771;BME280;28426;42.872;25.314;2023-02-15T08:49:51;98315.53;;;6.89;63.01
42771;BME280;28426;42.872;25.314;2023-02-15T08:52:21;98313.69;;;6.89;61.76
42771;BME280;28426;42.872;25.314;2023-02-15T08:54:52;98317.66;;;6.95;62.95
42771;BME280;28426;42.872;25.314;2023-02-15T08:57:25;98311.53;;;7.04;63.07
42771;BME280;28426;42.872;25.314;2023-02-15T08:59:57;98313.94;;;7.07;59.52
42771;BME280;28426;42.872;25.314;2023-02-15T09:02:31;98319.50;;;7.04;60.05
42771;BME280;28426;42.872;25.314;2023-02-15T09:05:01;98307.34;;;7.02;59.84
42771;BME280;28426;42.872;25.314;2023-02-15T09:07:32;98319.91;;;7.00;59.85
42771;BME280;28426;42.872;25.314;2023-02-15T09:10:02;98310.66;;;6.94;56.78
42771;BME280;28426;42.872;25.314;2023-02-15T09:12:36;98318.56;;;6.84;55.56
42771;BME280;28426;42.872;25.314;2023-02-15T09:15:08;98319.22;;;6.76;57.87
42771;BME280;28426;42.872;25.314;2023-02-15T09:17:38;98314.19;;;6.73;58.33
42771;BME280;28426;42.872;25.314;2023-02-15T09:20:09;98309.28;;;6.69;57.79
42771;BME280;28426;42.872;25.314;2023-02-15T09:22:40;98303.78;;;6.60;57.72
42771;BME280;28426;42.872;25.314;2023-02-15T09:25:10;98310.22;;;6.67;58.99
42771;BME280;28426;42.872;25.314;2023-02-15T09:27:44;98311.19;;;6.66;56.57
42771;BME280;28426;42.872;25.314;2023-02-15T09:30:15;98306.19;;;6.63;57.29
42771;BME280;28426;42.872;25.314;2023-02-15T09:32:47;98311.31;;;6.65;57.83
42771;BME280;28426;42.872;25.314;2023-02-15T09:35:18;98307.31;;;6.71;58.40
42771;BME280;28426;42.872;25.314;2023-02-15T09:37:48;98304.16;;;6.77;58.46
42771;BME280;28426;42.872;25.314;2023-02-15T09:40:19;98307.81;;;6.86;56.71
42771;BME280;28426;42.872;25.314;2023-02-15T09:43:08;98303.69;;;6.93;57.08
42771;BME280;28426;42.872;25.314;2023-02-15T09:45:57;98301.19;;;7.01;57.46
42771;BME280;28426;42.872;25.314;2023-02-15T09:48:41;98295.50;;;7.06;53.57
42771;BME280;28426;42.872;25.314;2023-02-15T09:51:22;98279.00;;;7.02;55.49
42771;BME280;28426;42.872;25.314;2023-02-15T09:54:13;98292.47;;;7.11;54.24
42771;BME280;28426;42.872;25.314;2023-02-15T09:56:52;98295.94;;;7.11;55.03
42771;BME280;28426;42.872;25.314;2023-02-15T09:59:36;98292.28;;;7.12;53.89
42771;BME280;28426;42.872;25.314;2023-02-15T10:02:23;98283.38;;;7.13;53.55
42771;BME280;28426;42.872;25.314;2023-02-15T10:05:08;98281.69;;;7.12;52.70
42771;BME280;28426;42.872;25.314;2023-02-15T10:08:02;98274.44;;;7.14;54.44
42771;BME280;28426;42.872;25.314;2023-02-15T10:10:44;98278.50;;;7.18;53.79
42771;BME280;28426;42.872;25.314;2023-02-15T10:13:26;98266.22;;;7.17;53.05
42771;BME280;28426;42.872;25.314;2023-02-15T10:16:15;98274.44;;;7.14;52.74
42771;BME280;28426;42.872;25.314;2023-02-15T10:18:55;98270.09;;;7.13;53.36
42771;BME280;28426;42.872;25.314;2023-02-15T10:21:41;98270.09;;;7.13;52.39
42771;BME280;28426;42.872;25.314;2023-02-15T10:24:45;98258.78;;;7.11;52.84
42771;BME280;28426;42.872;25.314;2023-02-15T10:27:20;98272.03;;;7.11;54.18
42771;BME280;28426;42.872;25.314;2023-02-15T10:30:03;98272.47;;;7.16;54.46
42771;BME280;28426;42.872;25.314;2023-02-15T10:32:49;98264.94;;;7.22;53.38
42771;BME280;28426;42.872;25.314;2023-02-15T10:35:28;98251.97;;;7.28;54.07
42771;BME280;28426;42.872;25.314;2023-02-15T10:38:19;98261.94;;;7.36;53.33
42771;BME280;28426;42.872;25.314;2023-02-15T10:41:01;98245.72;;;7.39;52.57
42771;BME280;28426;42.872;25.314;2023-02-15T10:43:45;98253.16;;;7.45;53.09
42771;BME280;28426;42.872;25.314;2023-02-15T10:46:33;98249.94;;;7.52;52.81
42771;BME280;28426;42.872;25.314;2023-02-15T10:49:37;98249.41;;;7.58;52.89
42771;BME280;28426;42.872;25.314;2023-02-15T10:52:25;98250.25;;;7.68;51.40
42771;BME280;28426;42.872;25.314;2023-02-15T10:55:08;98257.25;;;7.79;52.91
42771;BME280;28426;42.872;25.314;2023-02-15T10:57:51;98244.94;;;7.88;51.40
42771;BME280;28426;42.872;25.314;2023-02-15T11:00:32;98251.25;;;7.97;51.28
42771;BME280;28426;42.872;25.314;2023-02-15T11:03:18;98250.81;;;8.02;51.19
42771;BME280;28426;42.872;25.314;2023-02-15T11:06:03;98248.97;;;8.12;51.70
42771;BME280;28426;42.872;25.314;2023-02-15T11:08:38;98242.41;;;8.16;52.88
42771;BME280;28426;42.872;25.314;2023-02-15T11:11:14;98250.66;;;8.33;52.31
42771;BME280;28426;42.872;25.314;2023-02-15T11:13:49;98249.78;;;8.42;50.13
42771;BME280;28426;42.872;25.314;2023-02-15T11:16:24;98251.19;;;8.46;50.91
42771;BME280;28426;42.872;25.314;2023-02-15T11:18:58;98247.13;;;8.52;51.22
42771;BME280;28426;42.872;25.314;2023-02-15T11:21:36;98247.69;;;8.56;48.61
42771;BME280;28426;42.872;25.314;2023-02-15T11:24:10;98250.34;;;8.66;51.10
42771;BME280;28426;42.872;25.314;2023-02-15T11:26:44;98242.16;;;8.77;50.80
42771;BME280;28426;42.872;25.314;2023-02-15T11:29:23;98240.19;;;8.89;49.88
42771;BME280;28426;42.872;25.314;2023-02-15T11:31:58;98235.66;;;8.99;50.49
42771;BME280;28426;42.872;25.314;2023-02-15T11:34:34;98237.97;;;9.12;49.95
42771;BME280;28426;42.872;25.314;2023-02-15T11:37:12;98230.63;;;9.24;50.77
42771;BME280;28426;42.872;25.314;2023-02-15T11:39:45;98230.81;;;9.41;50.28
42771;BME280;28426;42.872;25.314;2023-02-15T11:42:20;98233.84;;;9.46;49.45
42771;BME280;28426;42.872;25.314;2023-02-15T11:44:58;98225.72;;;9.48;49.09
42771;BME280;28426;42.872;25.314;2023-02-15T11:47:30;98221.00;;;9.41;48.22
42771;BME280;28426;42.872;25.314;2023-02-15T11:50:01;98219.63;;;9.37;48.90
42771;BME280;28426;42.872;25.314;2023-02-15T11:52:34;98212.31;;;9.39;49.07
42771;BME280;28426;42.872;25.314;2023-02-15T11:55:12;98218.47;;;9.40;47.72
42771;BME280;28426;42.872;25.314;2023-02-15T11:57:49;98217.78;;;9.38;48.44
42771;BME280;28426;42.872;25.314;2023-02-15T12:00:31;98214.81;;;9.41;48.78
42771;BME280;28426;42.872;25.314;2023-02-15T12:03:11;98202.75;;;9.47;49.25
42771;BME280;28426;42.872;25.314;2023-02-15T12:05:47;98203.66;;;9.55;48.69
42771;BME280;28426;42.872;25.314;2023-02-15T12:08:34;98205.56;;;9.63;49.70
42771;BME280;28426;42.872;25.314;2023-02-15T12:11:09;98198.09;;;9.67;47.86
42771;BME280;28426;42.872;25.314;2023-02-15T12:13:56;98195.16;;;9.70;47.50
42771;BME280;28426;42.872;25.314;2023-02-15T12:16:29;98199.47;;;9.71;47.35
42771;BME280;28426;42.872;25.314;2023-02-15T12:19:02;98196.81;;;9.71;49.07
42771;BME280;28426;42.872;25.314;2023-02-15T12:21:39;98195.66;;;9.74;48.98
42771;BME280;28426;42.872;25.314;2023-02-15T12:24:18;98200.06;;;9.83;48.88
42771;BME280;28426;42.872;25.314;2023-02-15T12:26:59;98191.47;;;9.89;48.29
42771;BME280;28426;42.872;25.314;2023-02-15T12:29:39;98187.03;;;9.98;49.88
42771;BME280;28426;42.872;25.314;2023-02-15T12:32:15;98184.13;;;10.10;50.14
42771;BME280;28426;42.872;25.314;2023-02-15T12:34:46;98179.34;;;10.13;47.29
42771;BME280;28426;42.872;25.314;2023-02-15T12:37:21;98178.63;;;10.11;45.66
42771;BME280;28426;42.872;25.314;2023-02-15T12:39:57;98184.44;;;10.06;46.05
42771;BME280;28426;42.872;25.314;2023-02-15T12:42:41;98176.06;;;10.01;46.28
42771;BME280;28426;42.872;25.314;2023-02-15T12:45:24;98181.56;;;10.00;46.39
42771;BME280;28426;42.872;25.314;2023-02-15T12:48:15;98179.50;;;9.93;44.36
42771;BME280;28426;42.872;25.314;2023-02-15T12:50:47;98182.19;;;9.75;45.37
42771;BME280;28426;42.872;25.314;2023-02-15T12:53:30;98175.81;;;9.50;45.08
42771;BME280;28426;42.872;25.314;2023-02-15T12:56:05;98166.69;;;9.24;44.81
42771;BME280;28426;42.872;25.314;2023-02-15T12:58:39;98176.94;;;9.01;45.14
42771;BME280;28426;42.872;25.314;2023-02-15T13:01:12;98166.50;;;8.80;45.00
42771;BME280;28426;42.872;25.314;2023-02-15T13:03:55;98169.56;;;8.57;45.25
42771;BME280;28426;42.872;25.314;2023-02-15T13:06:27;98160.09;;;8.34;46.03
42771;BME280;28426;42.872;25.314;2023-02-15T13:09:06;98166.56;;;8.22;46.50
42771;BME280;28426;42.872;25.314;2023-02-15T13:11:45;98172.88;;;8.11;47.39
42771;BME280;28426;42.872;25.314;2023-02-15T13:14:18;98171.06;;;8.02;46.11
42771;BME280;28426;42.872;25.314;2023-02-15T13:16:51;98169.41;;;7.91;46.69
42771;BME280;28426;42.872;25.314;2023-02-15T13:19:28;98171.09;;;7.82;46.85
42771;BME280;28426;42.872;25.314;2023-02-15T13:22:01;98164.97;;;7.71;46.60
42771;BME280;28426;42.872;25.314;2023-02-15T13:24:35;98166.63;;;7.63;46.79
42771;BME280;28426;42.872;25.314;2023-02-15T13:27:12;98157.69;;;7.54;46.91
42771;BME280;28426;42.872;25.314;2023-02-15T13:29:48;98170.53;;;7.49;47.78
42771;BME280;28426;42.872;25.314;2023-02-15T13:32:27;98161.19;;;7.44;47.97
42771;BME280;28426;42.872;25.314;2023-02-15T13:35:00;98155.16;;;7.42;48.44
42771;BME280;28426;42.872;25.314;2023-02-15T13:40:39;98159.06;;;7.38;47.69
42771;BME280;28426;42.872;25.314;2023-02-15T13:43:25;98156.13;;;7.31;47.24